Bluebell, South Dakota
Current Conditions -  °F | °C
As of 12:53 AM on Thursday 27 Nov 2014 (Local Time) from KCUT Reporting Station
Scattered Clouds Scattered Clouds  
Wind Chill: 13°   Ceiling: Unl
Heat Index: 21°   Visibility: 10mi
Dew Point: 18°   Wind: 6mph
Humidity: 88%   Direction: 240°WSW
Pressure: 30.12"   Gusts: NA
Location:  43.6653°N, 103.766°W
Report Text: KCUT 270753Z AUTO 24005KT 10SM SCT055 M06/M08 A3012 RMK AO2 SLP247 T10611078
Loading
Personal Weather Stations






























Interactive Weather Map New forecast layout! Learn more

10-Day Weather Forecast

Advertisements
Track Severe Weather on mobile